Mexico, Pennsylvania
Current Conditions -  °F | °C
As of 8:53 AM on Friday 28 Nov 2014 (Local Time) from KSEG Reporting Station
Clear Clear  
Wind Chill: 24°   Ceiling: Unl
Heat Index: 30°   Visibility: 10mi
Dew Point: 18°   Wind: 6mph
Humidity: 61%   Direction: 300°WNW
Pressure: 30.25"   Gusts: NA
Location:  40.54°N, 77.35°W
Report Text: KSEG 281353Z AUTO 30005KT 10SM CLR M01/M08 A3025 RMK AO2 SLP248 T10111078
Loading
Personal Weather Stations






























Interactive Weather Map New forecast layout! Learn more

10-Day Weather Forecast

Advertisements
Track Severe Weather on mobile